Rm Thomas — FNMP — position and weather

sailwx.info

Track history (hours):
 
Tides and Currents Weather Stations Pressure Air Temp Water Temp Dewpoint Dewpoint Depression Visibility Wind Speed Wind Dir Waves Ship Positions

Rm Thomas

Last reported at 2014-Aug-16 21:16 UTC. Time now 2014-Aug-21 00:27 UTC.
Position N 44°56' W 000°33'.

Length 25 m; draft 4 m.

Type: Tug. MMSI: 228278700.

Date/timePositionNaut miles runAvg speedWind from/ knotsBaromVisibWave heightAir tempDewpointWater temp
2014-Aug-16 21:16N 44°56' W 000°33'4 0.5
2014-Aug-16 13:20N 45°00' W 000°34'0 0.0
2014-Aug-16 12:33N 45°00' W 000°34'0 0.1
2014-Aug-16 11:09N 45°00' W 000°34'0 0.0
2014-Aug-16 10:31N 45°00' W 000°34'1 0.7
2014-Aug-16 09:31N 44°60' W 000°33'1 0.0
2014-Aug-15 20:32N 45°00' W 000°34'1 0.4
2014-Aug-15 17:29N 45°01' W 000°35'2 1.9
2014-Aug-15 16:15N 44°59' W 000°33'  
Track history (hours):
 
Tides and Currents Weather Stations Pressure Air Temp Water Temp Dewpoint Dewpoint Depression Visibility Wind Speed Wind Dir Waves Ship Positions

Rm Thomas

Last reported at 2014-Aug-16 21:16 UTC. Time now 2014-Aug-21 00:27 UTC.
Position N 44°56' W 000°33'.

Length 25 m; draft 4 m.

Type: Tug. MMSI: 228278700.

Date/timePositionNaut miles runAvg speedWind from/ knotsBaromVisibWave heightAir tempDewpointWater temp
2014-Aug-16 21:16N 44°56' W 000°33'4 0.5
2014-Aug-16 13:20N 45°00' W 000°34'0 0.0
2014-Aug-16 12:33N 45°00' W 000°34'0 0.1
2014-Aug-16 11:09N 45°00' W 000°34'0 0.0
2014-Aug-16 10:31N 45°00' W 000°34'1 0.7
2014-Aug-16 09:31N 44°60' W 000°33'1 0.0
2014-Aug-15 20:32N 45°00' W 000°34'1 0.4
2014-Aug-15 17:29N 45°01' W 000°35'2 1.9
2014-Aug-15 16:15N 44°59' W 000°33'  

Dump ship's entire track history